6B9

Skaneateles Aero Drome Airport

Skaneateles, New York, USA
METAR K6B9 132155Z AUTO VRB04G10KT 10SM BKN011 BKN015 OVC065 01/00 A3003 RMK AO2
Observed Flight Rules
Nov-13 @ 21:55 UTC (34 minutes ago) Marginal Visual Flight Rules
Wind Visibility Clouds
Variable at 4 knots
 Gusting to 10 knots
10 miles
  • Broken at 1,100' AGL
  • Broken at 1,500' AGL
  • Overcast at 6,500' AGL
Temperatures Readings
Current 1°C / 34°F
Dewpoint 0°C / 32°F
Humidity 93%
Altimeter 30.03" Hg
Pressure 1017 hPa
Elevation 316
METAR K6B9 132155Z AUTO VRB04G10KT 10SM BKN011 BKN015 OVC065 01/00 A3003 RMK AO2
Observed Flight Rules
Nov-13 @ 21:55 UTC
(34 minutes ago)
MVFR
Wind Visibility
Variable at 4 knots
 Gusting to 10 knots
10 miles
Clouds
  • Broken at 1,100' AGL
  • Broken at 1,500' AGL
  • Overcast at 6,500' AGL
Temperature Dewpoint
1°C / 34°F 0°C / 32°F
Humidity Altimeter Pressure
93% 30.03" Hg 1017 hPa